Webcam 1 more information Webcam 1


Webcam 2 more information Webcam 2


avvertimento per Temporali more information blitzortung!


avvertimento per Pioggia more information rain snow radar


altri nostri siti meteo:

Pomeziameteo 1Sito sul meteo

Pomeziameteo DashboardSito sul meteo

Caput FrigorisSito sul meteo

BarcellonameteoSito sul meteo

MeteoipassiSito sul meteo

ViterbometeoSito sul meteo

MeteotortoretoSito sul meteo

Stazione LineameteoSito sul meteo



Pioggia Inizio validita dal: 21-06-2018 11:00 Fino: 18:59 Allerta per: Pioggia Livello: Giallo info button
Temporali Inizio validita dal: 21-06-2018 11:00 Fino: 18:59 Allerta per: Temporali Livello: Giallo info button

Report METAR

   
LIBP - Pescara
Dati ricevuti: 21-06-2018 10:50
Sereno  
Sereno  
   Vento: Oriente 13 km/h
Vento: Oriente 13 km/h
Temperatura: 28°C
Indice di Calore: 29°C
P.to Rugiada: 18°C
Umidita: 55%
Barometro: 1016 hPa
Visibilita: oltre 10 km
dettagli cloud: Sereno
LIBP 210850Z 09007KT CAVOK 28/18 Q1016
LIRZ - Perugia
Dati ricevuti: 21-06-2018 10:50
Poche nuvole  
Poche nuvole  
   Vento: Variabile 3.7 km/h
Vento: Variabile 3.7 km/h
Temperatura: 26°C
P.to Rugiada: 17°C
Umidita: 58%
Barometro: 1018 hPa
Nuvole: Poche nuvole
Visibilita: oltre 10 km
dettagli cloud: Poche nuvole 5000 ft
LIRZ 210850Z VRB02KT 9999 FEW050 26/17 Q1018
LIQN - Rieti
Dati ricevuti: 21-06-2018 10:50
Sereno  
Sereno  
   Vento: West 7.4 km/h
Vento: West 7.4 km/h
Temperatura: 24°C
P.to Rugiada: 17°C
Umidita: 65%
Barometro: 1018 hPa
Visibilita: oltre 10 km
dettagli cloud: Sereno
LIQN 210850Z 28004KT CAVOK 24/17 Q1018
LIPY - Falconara
Dati ricevuti: 21-06-2018 10:50
Sereno  
Sereno  
   Vento: NE 13 km/h
Vento: NE 13 km/h
Temperatura: 27°C
Indice di Calore: 28°C
P.to Rugiada: 18°C
Umidita: 58%
Barometro: 1015 hPa
Visibilita: oltre 10 km
dettagli cloud: Sereno
LIPY 210850Z 03007KT 360V060 CAVOK 27/18 Q1015
  

Script sviluppato da  Saratoga-weather.org Adattato per il modello da  Weerstation Leuven

Potete trovare le nostre info meteo anche a:

Weather Underground

AWEKAS

Citizen Weather Observer Program (CWOP)

HAMweather, WeatherForYou, PWS Weather

Strumentazione usata:

Stazione meteo
Oregon 928

Programma gestore dati meteo
WVIEW

Server per i dati meteo
Pc-WDS5

Oregon 928

WVIEW

Pc-WDS5